Airfield :
LOGIN :

Register | Disclaimer

   EN    FR    IT 

 










Legend :    VFR   Marginal VFR   IFR   Intensive IFR   Very Intensive IFR
Visi :
Ceiling :
>= 8 km
>= 3000ft
5 to 8 km
1000 to 3000 ft
1500m to 5 km
500 to 1000 ft
800 to 1500m
200 to 500 ft
< 800m
< 200 ft
Symbols :   Thunderstorms  Fog  Heavy snow  Heavy precipitations  Wind > 20 kt
SIGMETs :     Misc.  Thunderstorms  Icing  Turbulence  Mountain Waves  Volcanic Ashes






- Airport Elevation : 250 ft
- IATA code : AGA


GMAD - Al Massira Int.

CURRENT METAR :
  • 041730Z 26016KT CAVOK 21/13 Q1011 NOSIG

EXPIRED METARs :
  • 041700Z 25015KT CAVOK 22/11 Q1011 NOSIG
  • 041630Z 25017KT CAVOK 21/12 Q1011 NOSIG
  • 041600Z 27018KT CAVOK 22/11 Q1011 NOSIG
  • 041530Z 27016KT CAVOK 22/12 Q1011 NOSIG
  • 041500Z 27017KT CAVOK 22/12 Q1011 NOSIG

TAF TAF GMAD
Valid from the 04 at 18:00 until the 06 at 00:00 UTC


041700Z 0418/0524 25017KT CAVOK
BECMG 0421/0423 10004KT



MET'MAP, your aeronautical weather chart ! - Copyright ORBIFLY December 2007 - Disclaimer

ORBIFLY MET'MAP TEAM :

Programming & Development : Alexandra Zaïnal
Concept & original design : Baudouin d'Aumeries
Assistance for programming : Marc-Olivier Méhu
Technical & hardware support : Manuel Goepfert

Contact : metmap@orbifly.com




SOURCES & CREDITS :

   NOAA